Time;durP1;ratioP1;P1;durP2;ratioP2;P2;SDS_P1;SDS_P2;PMS_P1;PMS_P2;Temp;Humidity;BMP_temperature;BMP_pressure;BME280_temperature;BME280_humidity;BME280_pressure;Samples;Min_cycle;Max_cycle;Signal;HPM_P1;HPM_P2
2022/07/11 00:00:16;;;;;;;2.63;1.00;;;11.80;99.90;;;;;;5029224;28;20213;-88
2022/07/11 00:02:47;;;;;;;4.97;1.23;;;11.80;99.90;;;;;;5020674;28;20233;-87
2022/07/11 00:05:17;;;;;;;3.10;1.00;;;11.90;99.90;;;;;;5024673;28;20183;-90
2022/07/11 00:07:48;;;;;;;3.42;1.13;;;11.80;99.90;;;;;;5023610;28;20206;-88
2022/07/11 00:10:18;;;;;;;2.53;1.10;;;11.90;99.90;;;;;;5030363;28;20194;-85
2022/07/11 00:12:51;;;;;;;3.10;1.10;;;11.90;99.90;;;;;;5027021;28;20202;-90
2022/07/11 00:15:22;;;;;;;1.65;1.25;;;11.90;99.90;;;;;;5023284;28;20202;-88
2022/07/11 00:17:53;;;;;;;3.80;1.20;;;11.90;99.90;;;;;;5030812;28;20195;-91
2022/07/11 00:20:24;;;;;;;3.50;1.15;;;11.90;99.90;;;;;;5022986;28;20209;-90
2022/07/11 00:22:55;;;;;;;4.35;1.40;;;11.90;99.90;;;;;;5028135;28;20199;-90
2022/07/11 00:25:26;;;;;;;3.72;1.13;;;12.00;99.90;;;;;;5030139;28;20206;-90
2022/07/11 00:27:58;;;;;;;3.55;1.20;;;12.00;99.90;;;;;;5020589;28;20198;-84
2022/07/11 00:30:29;;;;;;;4.60;1.30;;;12.00;99.90;;;;;;5027003;28;20199;-90
2022/07/11 00:33:00;;;;;;;5.57;1.50;;;12.10;99.90;;;;;;5026855;28;20232;-89
2022/07/11 00:35:30;;;;;;;5.10;1.50;;;12.30;99.90;;;;;;5023331;28;20202;-87
2022/07/11 00:38:01;;;;;;;5.75;1.60;;;12.50;99.90;;;;;;5029976;28;20673;-87
2022/07/11 00:40:32;;;;;;;3.15;1.33;;;12.70;99.90;;;;;;5026121;28;20716;-88
2022/07/11 00:43:06;;;;;;;7.22;1.27;;;12.80;99.90;;;;;;5026207;28;20205;-86
2022/07/11 00:45:37;;;;;;;3.17;0.95;;;13.00;99.90;;;;;;5030292;28;20201;-89
2022/07/11 00:48:10;;;;;;;4.18;1.20;;;13.10;99.90;;;;;;5024698;28;20198;-91
2022/07/11 00:50:41;;;;;;;2.58;1.20;;;13.30;99.90;;;;;;5025722;28;20378;-89
2022/07/11 00:53:12;;;;;;;6.03;1.50;;;13.40;99.90;;;;;;5024192;28;20218;-86
2022/07/11 00:55:44;;;;;;;3.45;1.08;;;13.50;99.90;;;;;;5023645;28;20201;-85
2022/07/11 00:58:16;;;;;;;3.50;1.10;;;13.60;99.90;;;;;;5027487;28;20202;-88
2022/07/11 01:00:47;;;;;;;3.63;1.02;;;13.80;99.90;;;;;;5021464;28;20222;-87
2022/07/11 01:03:18;;;;;;;4.07;1.10;;;13.90;99.90;;;;;;5018537;28;20248;-88
2022/07/11 01:05:48;;;;;;;2.75;0.90;;;14.00;99.90;;;;;;5024345;28;20198;-84
2022/07/11 01:08:19;;;;;;;4.78;1.10;;;14.10;99.90;;;;;;5031973;28;20198;-87
2022/07/11 01:10:50;;;;;;;2.22;0.95;;;14.20;99.90;;;;;;5027280;28;20202;-91
2022/07/11 01:13:22;;;;;;;2.90;1.13;;;14.40;99.90;;;;;;5030025;28;20339;-88
2022/07/11 01:15:53;;;;;;;2.90;1.08;;;14.50;99.90;;;;;;5025887;28;20207;-93
2022/07/11 01:18:24;;;;;;;3.28;0.95;;;14.60;99.90;;;;;;5030971;28;20213;-89
2022/07/11 01:20:55;;;;;;;4.65;0.88;;;14.70;99.90;;;;;;5022203;28;20194;-91
2022/07/11 01:23:27;;;;;;;3.53;1.10;;;14.80;99.90;;;;;;5024915;28;20206;-87
2022/07/11 01:25:58;;;;;;;4.88;1.13;;;14.90;99.90;;;;;;5027741;28;20217;-88
2022/07/11 01:28:29;;;;;;;2.30;0.90;;;14.90;99.90;;;;;;5029032;28;20201;-82
2022/07/11 01:30:59;;;;;;;4.32;0.98;;;14.90;99.90;;;;;;5013944;28;20251;-83
2022/07/11 01:33:33;;;;;;;2.47;0.98;;;14.90;99.90;;;;;;5027758;28;20712;-77
2022/07/11 01:36:05;;;;;;;5.78;0.95;;;14.90;99.90;;;;;;5021429;28;20697;-79
2022/07/11 01:38:38;;;;;;;3.15;0.88;;;14.80;99.90;;;;;;5029308;28;20679;-89
2022/07/11 01:41:08;;;;;;;13.65;6.35;;;14.80;99.90;;;;;;5029887;28;20245;-80
2022/07/11 01:43:39;;;;;;;3.70;1.20;;;14.70;99.90;;;;;;5031818;28;20198;-84
2022/07/11 01:46:10;;;;;;;3.65;1.00;;;14.70;99.90;;;;;;5030083;28;20190;-79
2022/07/11 01:48:41;;;;;;;2.67;0.80;;;14.90;99.90;;;;;;5031943;28;20201;-78
2022/07/11 01:51:11;;;;;;;4.03;0.80;;;14.90;99.90;;;;;;5032509;28;20190;-78
2022/07/11 01:53:44;;;;;;;4.18;1.00;;;14.90;99.90;;;;;;5029404;28;20214;-80
2022/07/11 01:56:15;;;;;;;4.13;0.80;;;14.70;99.90;;;;;;5028322;28;20202;-80
2022/07/11 01:58:45;;;;;;;4.00;0.77;;;14.70;99.90;;;;;;5026251;28;20201;-89
2022/07/11 02:01:16;;;;;;;6.45;1.13;;;14.60;99.90;;;;;;5028697;28;20201;-90
2022/07/11 02:03:47;;;;;;;2.45;0.90;;;14.50;99.90;;;;;;5032255;28;20190;-87
2022/07/11 02:06:17;;;;;;;7.18;1.15;;;14.40;99.90;;;;;;5031442;28;20640;-80
2022/07/11 02:08:50;;;;;;;3.45;1.00;;;14.30;99.90;;;;;;5035286;28;20641;-86
2022/07/11 02:11:20;;;;;;;3.17;1.10;;;14.30;99.90;;;;;;5035375;28;20199;-84
2022/07/11 02:13:51;;;;;;;4.93;1.35;;;14.20;99.90;;;;;;5033886;28;20649;-79
2022/07/11 02:16:22;;;;;;;4.95;1.10;;;14.00;99.90;;;;;;5035672;28;20651;-88
2022/07/11 02:18:52;;;;;;;5.15;1.23;;;14.00;99.90;;;;;;5034181;28;20557;-80
2022/07/11 02:21:23;;;;;;;3.70;1.23;;;13.90;99.90;;;;;;5032870;28;20198;-79
2022/07/11 02:23:56;;;;;;;8.38;1.50;;;13.70;99.90;;;;;;5035164;28;20595;-77
2022/07/11 02:26:26;;;;;;;4.45;1.30;;;13.70;99.90;;;;;;5033871;28;20187;-78
2022/07/11 02:28:57;;;;;;;4.60;1.30;;;13.70;99.90;;;;;;5027719;28;20187;-81
2022/07/11 02:31:28;;;;;;;5.47;1.20;;;13.70;99.90;;;;;;5034017;28;20555;-86
2022/07/11 02:33:58;;;;;;;4.32;1.10;;;13.70;99.90;;;;;;5037527;28;20210;-92
2022/07/11 02:36:29;;;;;;;4.50;1.05;;;13.80;99.90;;;;;;5033699;28;20234;-77
2022/07/11 02:39:02;;;;;;;5.30;1.10;;;13.90;99.90;;;;;;5035248;28;20197;-91
2022/07/11 02:41:32;;;;;;;4.20;1.00;;;14.00;99.90;;;;;;5030422;28;20273;-78
2022/07/11 02:44:03;;;;;;;6.05;1.30;;;14.20;99.90;;;;;;5035299;28;20197;-78
2022/07/11 02:46:34;;;;;;;2.95;0.75;;;14.30;99.90;;;;;;5032741;28;20201;-91
2022/07/11 02:49:04;;;;;;;3.45;1.20;;;14.30;99.90;;;;;;5029712;28;20214;-91
2022/07/11 02:51:35;;;;;;;2.17;0.90;;;14.30;99.90;;;;;;5032088;28;20666;-91
2022/07/11 02:54:08;;;;;;;3.78;0.98;;;14.40;99.90;;;;;;5035563;28;20210;-92
2022/07/11 02:56:38;;;;;;;2.72;0.85;;;14.60;99.90;;;;;;5031410;28;20205;-89
2022/07/11 02:59:09;;;;;;;4.30;1.30;;;14.70;99.90;;;;;;5034530;28;20194;-94
2022/07/11 03:01:41;;;;;;;5.93;1.08;;;14.70;99.90;;;;;;5034364;28;20194;-79
2022/07/11 03:04:12;;;;;;;4.72;1.25;;;14.60;99.90;;;;;;5035340;28;20723;-86
2022/07/11 03:06:43;;;;;;;7.85;1.42;;;14.60;99.90;;;;;;5030053;28;20195;-90
2022/07/11 03:09:16;;;;;;;7.63;1.20;;;14.80;99.90;;;;;;5033062;28;20194;-90
2022/07/11 03:11:47;;;;;;;7.72;1.23;;;15.00;99.90;;;;;;5027090;28;20191;-93
2022/07/11 03:14:17;;;;;;;4.68;1.10;;;15.20;99.90;;;;;;5032140;28;20226;-93
2022/07/11 03:16:48;;;;;;;3.63;1.10;;;15.30;99.90;;;;;;5023454;28;20191;-93
2022/07/11 03:19:19;;;;;;;3.95;1.00;;;15.40;99.90;;;;;;5016363;28;20554;-87
2022/07/11 03:21:50;;;;;;;5.32;0.98;;;15.40;99.90;;;;;;5023538;28;20206;-90
2022/07/11 03:24:22;;;;;;;5.68;1.65;;;15.30;99.90;;;;;;5023254;28;20195;-88
2022/07/11 03:26:56;;;;;;;4.90;1.10;;;15.10;99.90;;;;;;5033839;28;20206;-91
2022/07/11 03:29:26;;;;;;;4.47;1.42;;;15.00;99.90;;;;;;5032827;28;20221;-91
2022/07/11 03:31:57;;;;;;;7.75;1.30;;;14.80;99.90;;;;;;5021818;28;20202;-90
2022/07/11 03:34:27;;;;;;;4.60;1.05;;;14.70;99.90;;;;;;5031034;28;20210;-90
2022/07/11 03:36:58;;;;;;;4.68;1.33;;;14.70;99.90;;;;;;5031750;28;20713;-87
2022/07/11 03:39:31;;;;;;;5.18;0.88;;;14.60;99.90;;;;;;5032968;28;20233;-87
2022/07/11 03:42:02;;;;;;;4.88;1.00;;;14.70;99.90;;;;;;5030739;28;20220;-88
2022/07/11 03:44:32;;;;;;;5.75;1.10;;;14.60;99.90;;;;;;5028437;28;20645;-89
2022/07/11 03:47:03;;;;;;;5.93;1.08;;;14.50;99.90;;;;;;5023350;28;20201;-90
2022/07/11 03:49:34;;;;;;;6.57;1.27;;;14.50;99.90;;;;;;5027684;28;20198;-90
2022/07/11 03:52:04;;;;;;;5.25;1.00;;;14.40;99.90;;;;;;5030236;28;20198;-89
2022/07/11 03:54:37;;;;;;;4.25;0.80;;;14.30;99.90;;;;;;5022665;28;20214;-81
2022/07/11 03:57:08;;;;;;;8.25;1.45;;;14.30;99.90;;;;;;5024857;28;20203;-79
2022/07/11 03:59:39;;;;;;;7.18;1.40;;;14.30;99.90;;;;;;5028448;28;20190;-86
2022/07/11 04:02:09;;;;;;;5.18;1.38;;;14.30;99.90;;;;;;5030754;28;20198;-80
2022/07/11 04:04:40;;;;;;;6.40;1.20;;;14.30;99.90;;;;;;5028259;28;20226;-87
2022/07/11 04:07:11;;;;;;;6.25;1.40;;;14.20;99.90;;;;;;5031065;28;20201;-79
2022/07/11 04:09:44;;;;;;;3.58;1.20;;;14.20;99.90;;;;;;5024416;28;20198;-79
2022/07/11 04:12:15;;;;;;;4.80;1.30;;;14.20;99.90;;;;;;5029241;28;20680;-86
2022/07/11 04:14:45;;;;;;;8.38;1.90;;;14.20;99.90;;;;;;5031460;28;20214;-87
2022/07/11 04:17:16;;;;;;;4.25;1.55;;;14.20;99.90;;;;;;5025840;28;20562;-83
2022/07/11 04:19:47;;;;;;;4.18;1.25;;;14.30;99.90;;;;;;5031810;28;20186;-84
2022/07/11 04:22:18;;;;;;;5.68;1.42;;;14.40;99.90;;;;;;5029111;28;20198;-89
2022/07/11 04:24:50;;;;;;;5.85;1.40;;;14.60;99.90;;;;;;5033210;28;20209;-85
2022/07/11 04:27:21;;;;;;;3.67;1.30;;;14.70;99.90;;;;;;5018701;28;20194;-86
2022/07/11 04:29:51;;;;;;;5.85;1.35;;;14.80;99.90;;;;;;5028898;28;20198;-87
2022/07/11 04:32:22;;;;;;;4.70;1.08;;;14.80;99.90;;;;;;5029474;28;20194;-84
2022/07/11 04:34:53;;;;;;;2.85;0.85;;;14.70;99.90;;;;;;5030807;28;20261;-89
2022/07/11 04:37:26;;;;;;;4.43;0.98;;;14.70;99.90;;;;;;5025360;28;20266;-88
2022/07/11 04:39:58;;;;;;;3.42;0.77;;;14.70;99.90;;;;;;5022647;28;20711;-86
2022/07/11 04:42:29;;;;;;;3.33;0.82;;;14.50;99.90;;;;;;5032929;28;20191;-82
2022/07/11 04:44:59;;;;;;;6.97;1.10;;;14.40;99.90;;;;;;5028389;28;20195;-89
2022/07/11 04:47:30;;;;;;;2.40;0.90;;;14.30;99.90;;;;;;5033594;28;20190;-81
2022/07/11 04:50:01;;;;;;;3.35;1.00;;;14.20;99.90;;;;;;5031332;28;20198;-87
2022/07/11 04:52:32;;;;;;;4.28;1.52;;;14.20;99.90;;;;;;5031898;28;20194;-80
2022/07/11 04:55:04;;;;;;;2.17;0.90;;;14.20;99.90;;;;;;5020831;28;20716;-83
2022/07/11 04:57:35;;;;;;;5.75;1.00;;;14.10;99.90;;;;;;5027676;28;20213;-78
2022/07/11 05:00:07;;;;;;;3.05;1.10;;;14.00;99.90;;;;;;5021029;28;20209;-84
2022/07/11 05:02:37;;;;;;;3.28;0.90;;;14.00;99.90;;;;;;5019214;28;20218;-87
2022/07/11 05:05:09;;;;;;;3.55;1.00;;;14.00;99.90;;;;;;5022861;28;20222;-85
2022/07/11 05:07:39;;;;;;;6.90;1.20;;;13.90;99.90;;;;;;5031026;28;20197;-88
2022/07/11 05:10:12;;;;;;;3.97;1.15;;;14.00;99.90;;;;;;5031512;28;20194;-86
2022/07/11 05:12:43;;;;;;;6.30;1.63;;;13.90;99.90;;;;;;5025782;28;20207;-88
2022/07/11 05:15:14;;;;;;;4.30;1.10;;;13.90;99.90;;;;;;5028414;28;20206;-87
2022/07/11 05:17:45;;;;;;;6.47;1.40;;;13.90;99.90;;;;;;5019453;28;20206;-82
2022/07/11 05:20:15;;;;;;;4.25;1.30;;;13.90;99.90;;;;;;5013007;28;20191;-81
2022/07/11 05:22:46;;;;;;;5.15;1.45;;;13.90;99.90;;;;;;5029236;28;20202;-88
2022/07/11 05:25:19;;;;;;;5.50;1.30;;;13.80;99.90;;;;;;5020806;28;20190;-88
2022/07/11 05:27:49;;;;;;;6.63;1.33;;;13.80;99.90;;;;;;5027204;28;20684;-88
2022/07/11 05:30:21;;;;;;;4.13;1.30;;;13.80;99.90;;;;;;5029947;28;20277;-82
2022/07/11 05:32:51;;;;;;;5.63;1.23;;;13.80;99.90;;;;;;5032687;28;20205;-84
2022/07/11 05:35:22;;;;;;;4.60;1.13;;;13.80;99.90;;;;;;5028888;28;20214;-78
2022/07/11 05:37:53;;;;;;;4.95;1.27;;;13.80;99.90;;;;;;5031478;28;20280;-85
2022/07/11 05:40:25;;;;;;;4.88;1.17;;;13.70;99.90;;;;;;5035091;28;20200;-87
2022/07/11 05:42:56;;;;;;;2.20;1.20;;;13.70;99.90;;;;;;5036727;28;20205;-84
2022/07/11 05:45:27;;;;;;;6.13;1.63;;;13.70;99.90;;;;;;5033435;28;20201;-82
2022/07/11 05:47:58;;;;;;;5.03;1.40;;;13.70;99.90;;;;;;5028149;28;20203;-88
2022/07/11 05:50:28;;;;;;;4.55;1.50;;;13.70;99.90;;;;;;5035964;28;20187;-85
2022/07/11 05:52:59;;;;;;;3.78;1.50;;;13.60;99.90;;;;;;5036471;28;20535;-88
2022/07/11 05:55:32;;;;;;;3.88;1.25;;;13.60;99.90;;;;;;5036182;28;20211;-88
2022/07/11 05:58:04;;;;;;;3.13;1.23;;;13.50;99.90;;;;;;5036523;28;20229;-85
2022/07/11 06:00:35;;;;;;;8.43;1.38;;;13.40;99.90;;;;;;5036300;28;20633;-88
2022/07/11 06:03:05;;;;;;;6.97;1.52;;;13.40;99.90;;;;;;5035873;28;20269;-83
2022/07/11 06:05:36;;;;;;;2.38;1.20;;;13.50;99.90;;;;;;5032822;28;20194;-85
2022/07/11 06:10:55;;;;;;;3.95;1.30;;;13.40;99.90;;;;;;5036259;28;20216;-88
2022/07/11 06:13:27;;;;;;;3.72;1.40;;;13.30;99.90;;;;;;5036197;28;20201;-87
2022/07/11 06:15:57;;;;;;;5.55;1.60;;;13.30;99.90;;;;;;5036011;28;20218;-84
2022/07/11 06:18:28;;;;;;;2.95;1.10;;;13.30;99.90;;;;;;5036121;28;20195;-86
2022/07/11 06:20:59;;;;;;;5.82;1.20;;;13.20;99.90;;;;;;5035810;28;20197;-87
2022/07/11 06:23:30;;;;;;;4.32;1.23;;;13.20;99.90;;;;;;5035916;28;20643;-85
2022/07/11 06:26:02;;;;;;;4.03;1.40;;;13.20;99.90;;;;;;5035883;28;20216;-85
2022/07/11 06:28:33;;;;;;;3.53;1.20;;;13.10;99.90;;;;;;5035850;28;20198;-86
2022/07/11 06:31:04;;;;;;;6.32;1.58;;;13.10;99.90;;;;;;5035668;28;20199;-87
2022/07/11 06:33:35;;;;;;;4.15;1.60;;;13.10;99.90;;;;;;5035811;28;20599;-86
2022/07/11 06:36:06;;;;;;;4.90;1.67;;;13.10;99.90;;;;;;5035363;28;20616;-81
2022/07/11 06:38:37;;;;;;;4.70;1.80;;;13.10;99.90;;;;;;5035584;28;20190;-86
2022/07/11 06:41:10;;;;;;;4.18;1.50;;;13.00;99.90;;;;;;5035580;28;20570;-88
2022/07/11 06:43:41;;;;;;;4.32;1.48;;;13.00;99.90;;;;;;5035623;28;20608;-87
2022/07/11 06:46:12;;;;;;;4.60;1.50;;;13.00;99.90;;;;;;5035582;28;20190;-88
2022/07/11 06:48:43;;;;;;;6.50;1.50;;;12.90;99.90;;;;;;5035577;28;20650;-87
2022/07/11 06:51:14;;;;;;;3.67;1.42;;;12.90;99.90;;;;;;5033935;28;20294;-88
2022/07/11 06:53:44;;;;;;;2.88;1.58;;;12.90;99.90;;;;;;5035446;28;20191;-88
2022/07/11 06:56:17;;;;;;;3.85;1.60;;;12.90;99.90;;;;;;5035228;28;20214;-88
2022/07/11 06:58:48;;;;;;;5.25;1.90;;;12.80;99.90;;;;;;5035183;28;20190;-87
2022/07/11 07:01:18;;;;;;;4.13;1.70;;;12.80;99.90;;;;;;5035284;28;20194;-86
2022/07/11 07:03:49;;;;;;;6.78;1.55;;;12.80;99.90;;;;;;5034244;28;20222;-87
2022/07/11 07:06:20;;;;;;;6.38;1.73;;;12.70;99.90;;;;;;5035083;28;20234;-82
2022/07/11 07:08:51;;;;;;;5.68;1.60;;;12.70;99.90;;;;;;5035166;28;20660;-88
2022/07/11 07:11:23;;;;;;;9.32;1.90;;;12.70;99.90;;;;;;5035090;28;20638;-88
2022/07/11 07:13:54;;;;;;;4.35;1.60;;;12.70;99.90;;;;;;5034842;28;20210;-88
2022/07/11 07:16:24;;;;;;;7.55;2.05;;;12.60;99.90;;;;;;5024828;28;20214;-87
2022/07/11 07:18:55;;;;;;;5.97;2.08;;;12.60;99.90;;;;;;5034472;28;20228;-87
2022/07/11 07:21:26;;;;;;;7.68;2.72;;;12.60;99.90;;;;;;5041742;28;20668;-86
2022/07/11 07:23:57;;;;;;;8.20;2.90;;;12.60;99.90;;;;;;5015167;28;20646;-87
2022/07/11 07:26:30;;;;;;;7.10;3.60;;;12.60;99.90;;;;;;5015077;28;20253;-87
2022/07/11 07:29:00;;;;;;;5.03;3.28;;;12.60;99.90;;;;;;5019429;28;20190;-87
2022/07/11 07:31:31;;;;;;;6.28;3.42;;;12.60;99.90;;;;;;5033845;28;20194;-87
2022/07/11 07:34:02;;;;;;;7.57;3.75;;;12.50;99.90;;;;;;5034195;28;20522;-88
2022/07/11 07:36:32;;;;;;;39.70;24.90;;;12.40;99.90;;;;;;5034482;28;20252;-87
2022/07/11 07:39:03;;;;;;;68.50;42.45;;;12.40;99.90;;;;;;5021196;28;20202;-88
2022/07/11 07:41:35;;;;;;;12.13;6.70;;;12.40;99.90;;;;;;5016768;28;20191;-87
2022/07/11 07:44:07;;;;;;;17.38;11.60;;;12.40;99.90;;;;;;5019505;28;20651;-85
2022/07/11 07:46:38;;;;;;;14.65;6.28;;;12.40;99.90;;;;;;5027328;28;20278;-87
2022/07/11 07:49:08;;;;;;;11.57;4.95;;;12.40;99.90;;;;;;5027940;28;20557;-86
2022/07/11 07:51:39;;;;;;;11.85;6.07;;;12.40;99.90;;;;;;5032773;28;20191;-78
2022/07/11 07:54:10;;;;;;;8.82;5.75;;;12.40;99.90;;;;;;5025777;28;20202;-86
2022/07/11 07:56:43;;;;;;;11.13;5.65;;;12.40;99.90;;;;;;5033129;28;20222;-83
2022/07/11 07:59:14;;;;;;;9.30;4.57;;;12.40;99.90;;;;;;5033331;28;20186;-85
2022/07/11 08:01:45;;;;;;;10.15;4.75;;;12.40;99.90;;;;;;5032847;28;20198;-87
2022/07/11 08:04:16;;;;;;;10.40;4.60;;;12.40;99.90;;;;;;5032965;28;20214;-85
2022/07/11 08:06:46;;;;;;;8.18;4.70;;;12.40;99.90;;;;;;5033731;28;20201;-78
2022/07/11 08:09:17;;;;;;;9.45;5.10;;;12.40;99.90;;;;;;5033289;28;20190;-83
2022/07/11 08:11:50;;;;;;;11.40;5.07;;;12.40;99.90;;;;;;5033465;28;20201;-87
2022/07/11 08:14:20;;;;;;;12.18;5.65;;;12.40;99.90;;;;;;5033510;28;20201;-85
2022/07/11 08:16:51;;;;;;;11.23;5.55;;;12.30;99.90;;;;;;5032258;28;20218;-78
2022/07/11 08:19:22;;;;;;;9.75;5.32;;;12.30;99.90;;;;;;5032786;28;20187;-80
2022/07/11 08:21:52;;;;;;;10.38;5.28;;;12.20;99.90;;;;;;5028840;28;20562;-87
2022/07/11 08:24:23;;;;;;;10.68;4.90;;;12.20;99.90;;;;;;5033362;28;20205;-77
2022/07/11 08:26:55;;;;;;;14.55;5.65;;;12.20;99.90;;;;;;5033224;28;20186;-87
2022/07/11 08:29:26;;;;;;;11.50;5.22;;;12.20;99.90;;;;;;5030635;28;20642;-85
2022/07/11 08:31:57;;;;;;;12.00;5.80;;;12.10;99.90;;;;;;5032877;28;20653;-77
2022/07/11 08:34:28;;;;;;;9.50;5.70;;;12.10;99.90;;;;;;5030647;28;20195;-87
2022/07/11 08:36:58;;;;;;;11.23;6.43;;;12.00;99.90;;;;;;5032540;28;20605;-83
2022/07/11 08:39:29;;;;;;;12.68;5.85;;;12.00;99.90;;;;;;5030061;28;20190;-87
2022/07/11 08:42:02;;;;;;;10.55;5.35;;;11.90;99.90;;;;;;5033109;28;20190;-83
2022/07/11 08:44:32;;;;;;;11.93;5.38;;;11.90;99.90;;;;;;5032524;28;20197;-86
2022/07/11 08:47:04;;;;;;;10.73;5.68;;;11.80;99.90;;;;;;5029470;28;20198;-83
2022/07/11 08:49:35;;;;;;;11.52;5.53;;;11.80;99.90;;;;;;5032764;28;20225;-87
2022/07/11 08:52:08;;;;;;;11.57;5.65;;;11.70;99.90;;;;;;5032992;28;20190;-79
2022/07/11 08:54:38;;;;;;;10.38;5.90;;;11.70;99.90;;;;;;5027079;28;20195;-86
2022/07/11 08:57:11;;;;;;;11.20;5.70;;;11.70;99.90;;;;;;5032592;28;20214;-84
2022/07/11 08:59:43;;;;;;;12.15;5.93;;;11.70;99.90;;;;;;5032273;28;21417;-86
2022/07/11 09:02:15;;;;;;;59.10;31.25;;;11.70;99.90;;;;;;5032514;28;20186;-85
2022/07/11 09:04:47;;;;;;;31.83;18.25;;;11.70;99.90;;;;;;5031784;28;20220;-85
2022/07/11 09:07:17;;;;;;;23.33;13.45;;;11.70;99.90;;;;;;5032674;28;20194;-84
2022/07/11 09:09:48;;;;;;;48.05;29.85;;;11.70;99.90;;;;;;5025135;28;20194;-88
2022/07/11 09:12:21;;;;;;;36.65;20.27;;;11.70;99.90;;;;;;5032440;28;20570;-86
2022/07/11 09:14:57;;;;;;;39.22;22.65;;;11.60;99.90;;;;;;5034498;28;20240;-87
2022/07/11 09:17:32;;;;;;;24.20;13.65;;;11.60;99.90;;;;;;5034031;28;20214;-86
2022/07/11 09:20:02;;;;;;;13.40;7.18;;;11.60;99.90;;;;;;5036354;28;20643;-88
2022/07/11 09:25:31;;;;;;;13.95;7.53;;;11.60;99.90;;;;;;4962313;28;20193;-87
2022/07/11 09:28:07;;;;;;;14.18;6.88;;;11.60;99.90;;;;;;5022769;28;20650;-87
2022/07/11 09:30:41;;;;;;;12.23;6.45;;;11.60;99.90;;;;;;5034907;28;20656;-85
2022/07/11 09:33:13;;;;;;;12.80;6.50;;;11.50;99.90;;;;;;5036697;28;20186;-87
2022/07/11 09:35:45;;;;;;;11.57;6.30;;;11.50;99.90;;;;;;5027539;28;20238;-88
2022/07/11 09:38:17;;;;;;;12.00;6.97;;;11.40;99.90;;;;;;5032450;28;20186;-86
2022/07/11 09:40:49;;;;;;;11.18;7.15;;;11.40;99.90;;;;;;5034339;28;20562;-87
2022/07/11 09:43:27;;;;;;;10.88;6.90;;;11.40;99.90;;;;;;5031010;28;20190;-85
2022/07/11 09:46:08;;;;;;;14.57;7.15;;;11.30;99.90;;;;;;5033382;28;20573;-84
2022/07/11 09:48:39;;;;;;;13.32;6.97;;;11.30;99.90;;;;;;5034824;28;20194;-84
2022/07/11 09:51:10;;;;;;;12.02;7.22;;;11.30;99.90;;;;;;5035813;28;20626;-84
2022/07/11 09:53:57;;;;;;;11.27;6.10;;;11.30;99.90;;;;;;5030327;28;20249;-86
2022/07/11 09:56:28;;;;;;;12.50;6.10;;;11.30;99.90;;;;;;5034807;28;20245;-84
2022/07/11 09:59:11;;;;;;;11.55;5.88;;;11.20;99.90;;;;;;5028455;28;20205;-85
2022/07/11 10:01:42;;;;;;;11.48;6.00;;;11.30;99.90;;;;;;5032341;28;20202;-87
2022/07/11 10:04:13;;;;;;;9.00;5.50;;;11.20;99.90;;;;;;5039601;28;20704;-85
2022/07/11 10:06:44;;;;;;;10.10;5.82;;;11.20;99.90;;;;;;5027788;28;20666;-85
2022/07/11 10:09:15;;;;;;;10.18;5.75;;;11.30;99.90;;;;;;5031267;28;20638;-85
2022/07/11 10:11:45;;;;;;;11.48;5.40;;;11.30;99.90;;;;;;5033944;28;20202;-85
2022/07/11 10:14:18;;;;;;;11.05;6.22;;;11.30;99.90;;;;;;5031240;28;20669;-86
2022/07/11 10:17:00;;;;;;;9.20;5.35;;;11.30;99.90;;;;;;5035200;28;20693;-86
2022/07/11 10:19:43;;;;;;;9.38;6.03;;;11.40;99.90;;;;;;5033312;28;20198;-85
2022/07/11 10:22:19;;;;;;;10.40;5.68;;;11.30;99.90;;;;;;5034016;28;20201;-84
2022/07/11 10:24:58;;;;;;;9.50;5.82;;;11.30;99.90;;;;;;5019601;28;20194;-84
2022/07/11 10:27:38;;;;;;;10.13;5.97;;;11.30;99.90;;;;;;5032543;28;20641;-86
2022/07/11 10:30:11;;;;;;;12.95;6.88;;;11.30;99.90;;;;;;5027144;28;20186;-86
2022/07/11 10:33:08;;;;;;;12.70;6.80;;;11.30;99.90;;;;;;5025945;28;20581;-86
2022/07/11 10:35:42;;;;;;;14.02;6.82;;;11.20;99.90;;;;;;5033568;28;20230;-87
2022/07/11 10:38:13;;;;;;;13.18;7.15;;;11.20;99.90;;;;;;5033878;28;20553;-85
2022/07/11 10:40:53;;;;;;;12.80;6.95;;;11.20;99.90;;;;;;5032700;28;20198;-87
2022/07/11 10:43:38;;;;;;;11.32;6.82;;;11.20;99.90;;;;;;5033641;28;20190;-85
2022/07/11 10:46:12;;;;;;;10.68;6.88;;;11.20;99.90;;;;;;5033903;28;20220;-87
2022/07/11 10:49:02;;;;;;;13.02;6.95;;;11.20;99.90;;;;;;5033503;28;20243;-86
2022/07/11 10:51:47;;;;;;;14.00;7.03;;;11.20;99.90;;;;;;5031653;28;20225;-87
2022/07/11 10:54:31;;;;;;;10.90;6.35;;;11.20;99.90;;;;;;5033039;28;20656;-87
2022/07/11 10:57:13;;;;;;;10.60;6.38;;;11.20;99.90;;;;;;5034076;28;20221;-87
2022/07/11 10:59:58;;;;;;;13.95;7.10;;;11.20;99.90;;;;;;5032909;28;20194;-87
2022/07/11 11:02:31;;;;;;;10.20;6.97;;;11.10;99.90;;;;;;5030840;28;20209;-86
2022/07/11 11:05:03;;;;;;;15.32;7.78;;;11.10;99.90;;;;;;5030875;28;20201;-86
2022/07/11 11:07:48;;;;;;;14.70;7.43;;;11.10;99.90;;;;;;5033064;28;20190;-85
2022/07/11 11:10:53;;;;;;;12.45;7.35;;;11.10;99.90;;;;;;5032167;28;20642;-78
2022/07/11 11:13:23;;;;;;;15.98;7.90;;;11.10;99.90;;;;;;5033713;28;20611;-84
2022/07/11 11:15:55;;;;;;;18.02;8.93;;;11.10;99.90;;;;;;5028814;28;20199;-85
2022/07/11 11:18:39;;;;;;;12.07;7.70;;;11.10;99.90;;;;;;5030564;28;20198;-85
2022/07/11 11:21:25;;;;;;;14.13;7.93;;;11.10;99.90;;;;;;5030822;28;20190;-86
2022/07/11 11:24:14;;;;;;;16.75;8.63;;;11.10;99.90;;;;;;5033050;28;20186;-84
2022/07/11 11:26:53;;;;;;;16.60;9.13;;;11.10;99.90;;;;;;5032861;28;20194;-85
2022/07/11 11:29:26;;;;;;;18.02;9.45;;;11.10;99.90;;;;;;5033147;28;20198;-85
2022/07/11 11:31:59;;;;;;;14.60;9.90;;;11.10;99.90;;;;;;5032946;28;20592;-84
2022/07/11 11:34:32;;;;;;;18.75;10.30;;;11.00;99.90;;;;;;5022275;28;20191;-85
2022/07/11 11:37:04;;;;;;;15.93;10.18;;;11.00;99.90;;;;;;4866295;28;4414290;-84
2022/07/11 11:39:36;;;;;;;18.20;9.80;;;11.00;99.90;;;;;;5033930;28;20435;-85
2022/07/11 11:42:08;;;;;;;16.98;9.93;;;10.90;99.90;;;;;;5031620;28;20213;-85
2022/07/11 11:44:51;;;;;;;19.98;11.75;;;10.90;99.90;;;;;;5032639;28;20186;-86
2022/07/11 11:47:22;;;;;;;19.95;12.65;;;10.90;99.90;;;;;;5034047;28;20194;-82
2022/07/11 11:49:55;;;;;;;16.25;10.85;;;11.00;99.90;;;;;;5033038;28;20630;-88
2022/07/11 11:52:25;;;;;;;18.30;11.02;;;10.90;99.90;;;;;;5034007;28;20197;-89
2022/07/11 11:54:58;;;;;;;17.02;10.60;;;10.90;99.90;;;;;;5028000;28;20222;-86
2022/07/11 11:57:30;;;;;;;18.83;10.48;;;11.00;99.90;;;;;;5032222;28;20211;-86
2022/07/11 12:00:00;;;;;;;19.25;10.38;;;11.00;99.90;;;;;;5027763;28;20202;-86
2022/07/11 12:02:32;;;;;;;16.48;9.60;;;11.00;99.90;;;;;;5033259;28;20606;-87
2022/07/11 12:05:11;;;;;;;17.70;10.43;;;11.00;99.90;;;;;;5026415;28;20190;-86
2022/07/11 12:07:44;;;;;;;14.43;9.52;;;10.90;99.90;;;;;;5033280;28;20198;-85
2022/07/11 12:10:16;;;;;;;19.92;10.15;;;11.00;99.90;;;;;;5033516;28;20186;-84
2022/07/11 12:12:49;;;;;;;17.35;9.75;;;11.00;99.90;;;;;;5033494;28;20198;-86
2022/07/11 12:15:34;;;;;;;19.50;10.55;;;11.00;99.90;;;;;;5032760;28;20277;-81
2022/07/11 12:18:06;;;;;;;15.45;9.93;;;11.00;99.90;;;;;;5032244;28;20301;-85
2022/07/11 12:20:48;;;;;;;20.75;10.95;;;11.00;99.90;;;;;;5027859;28;20225;-82
2022/07/11 12:23:20;;;;;;;20.00;10.30;;;10.90;99.90;;;;;;5032549;28;20185;-85
2022/07/11 12:25:53;;;;;;;17.52;9.77;;;11.00;99.90;;;;;;5031908;28;20187;-84
2022/07/11 12:28:23;;;;;;;16.58;9.70;;;11.00;99.90;;;;;;5031879;28;20183;-85
2022/07/11 12:30:58;;;;;;;17.33;9.73;;;11.00;99.90;;;;;;5032253;28;20186;-83
2022/07/11 12:33:29;;;;;;;16.08;10.10;;;11.00;99.90;;;;;;5030050;28;20188;-84
2022/07/11 12:36:02;;;;;;;15.30;9.63;;;11.00;99.90;;;;;;5014990;28;20575;-84
2022/07/11 12:38:53;;;;;;;19.48;10.25;;;10.90;99.90;;;;;;5030730;28;20221;-86
2022/07/11 12:41:29;;;;;;;21.63;10.70;;;11.00;99.90;;;;;;5032303;28;20278;-83
2022/07/11 12:46:48;;;;;;;16.67;10.13;;;10.90;99.90;;;;;;5032215;28;20196;-81
2022/07/11 12:49:19;;;;;;;19.55;10.25;;;10.90;99.90;;;;;;5032946;28;20245;-84
2022/07/11 12:51:55;;;;;;;19.33;9.80;;;10.90;99.90;;;;;;5032814;28;20617;-83
2022/07/11 12:54:33;;;;;;;17.92;10.55;;;10.90;99.90;;;;;;5018398;28;20191;-86
2022/07/11 12:57:04;;;;;;;14.98;10.10;;;10.90;99.90;;;;;;5026811;28;20218;-85
2022/07/11 12:59:35;;;;;;;19.08;10.27;;;10.90;99.90;;;;;;5030611;28;20194;-85
2022/07/11 13:02:08;;;;;;;19.67;10.57;;;10.80;99.90;;;;;;5016801;28;20643;-84
2022/07/11 13:04:40;;;;;;;16.08;8.40;;;10.90;99.90;;;;;;5031018;28;20230;-83
2022/07/11 13:10:15;;;;;;;13.60;8.23;;;10.90;99.90;;;;;;5014871;28;20560;-85
2022/07/11 13:12:47;;;;;;;12.68;8.10;;;10.90;99.90;;;;;;5013445;28;20195;-84
2022/07/11 13:15:18;;;;;;;14.23;8.57;;;10.90;99.90;;;;;;5013516;28;20202;-86
2022/07/11 13:17:50;;;;;;;18.52;9.02;;;10.80;99.90;;;;;;5013453;28;20218;-85